createdAt,value
2016-11-14T09:55:53.178Z,17.13
2016-11-14T09:56:18.760Z,17.11
2016-11-14T09:56:44.320Z,17.14
2016-11-14T09:57:09.947Z,17.22
2016-11-14T09:57:35.596Z,17.22
2016-11-14T09:58:01.181Z,17.18
2016-11-14T09:58:26.811Z,17.26
2016-11-14T09:58:52.394Z,17.22
2016-11-14T09:59:18.012Z,17.18
2016-11-14T09:59:43.579Z,17.22
2016-11-14T10:00:09.154Z,17.25
2016-11-14T10:00:34.720Z,17.22
2016-11-14T10:01:00.262Z,17.22
2016-11-14T10:01:25.819Z,17.29
2016-11-14T10:01:51.448Z,17.32
2016-11-14T10:02:16.997Z,17.32
2016-11-14T10:02:42.562Z,17.35
2016-11-14T10:03:08.218Z,17.38
2016-11-14T10:03:33.773Z,17.4
2016-11-14T10:03:59.322Z,17.35
2016-11-14T10:04:24.944Z,17.43
2016-11-14T10:04:50.500Z,17.44
2016-11-14T10:05:16.042Z,17.44
2016-11-14T10:05:41.594Z,17.44
2016-11-14T10:06:07.152Z,17.53
2016-11-14T10:06:32.725Z,17.54
2016-11-14T10:06:58.362Z,17.5
2016-11-14T10:07:23.917Z,17.51
2016-11-14T10:07:49.471Z,17.67
2016-11-14T10:08:47.725Z,17.63
2016-11-14T10:09:13.312Z,17.73
2016-11-14T10:09:38.952Z,17.63
2016-11-14T10:10:04.454Z,17.71
2016-11-14T10:10:30.018Z,17.69
2016-11-14T10:10:55.573Z,17.71
2016-11-14T10:11:21.187Z,17.76
2016-11-14T10:11:46.676Z,17.81
2016-11-14T10:12:12.232Z,17.84
2016-11-14T10:12:37.805Z,17.82
2016-11-14T10:13:03.408Z,17.82
2016-11-14T10:13:28.959Z,17.87
2016-11-14T10:13:54.521Z,17.91
2016-11-14T10:14:20.193Z,17.84
2016-11-14T10:14:45.747Z,17.97
2016-11-14T10:15:11.295Z,17.95
2016-11-14T10:15:36.837Z,17.92
2016-11-14T10:16:02.464Z,17.95
2016-11-14T10:16:28.013Z,17.95
2016-11-14T10:16:53.563Z,17.97
2016-11-14T10:17:19.127Z,18
2016-11-14T10:17:44.695Z,18
2016-11-14T10:18:10.359Z,18.04
2016-11-14T10:18:35.906Z,18.03
2016-11-14T10:19:01.453Z,18
2016-11-14T10:19:27.009Z,18.1
2016-11-14T10:19:52.560Z,18.07
2016-11-14T10:20:18.193Z,18.18
2016-11-14T10:20:43.784Z,18.15
2016-11-14T10:21:09.367Z,18.21
2016-11-14T10:21:34.900Z,18.19
2016-11-14T10:22:00.461Z,18.18
2016-11-14T10:22:26.020Z,18.24
2016-11-14T10:22:51.568Z,18.25
2016-11-14T10:23:17.106Z,18.22
2016-11-14T10:23:42.667Z,18.18
2016-11-14T10:24:08.258Z,18.19
2016-11-14T10:24:33.817Z,18.18
2016-11-14T10:24:59.373Z,18.19
2016-11-14T10:25:24.932Z,18.31
2016-11-14T10:25:50.482Z,18.25
2016-11-14T10:26:16.052Z,18.25
2016-11-14T10:26:41.965Z,18.34
2016-11-14T10:27:07.291Z,18.31
2016-11-14T10:27:32.902Z,18.37
2016-11-14T10:27:58.471Z,18.34
2016-11-14T10:28:24.023Z,18.4
2016-11-14T10:28:49.591Z,18.39
2016-11-14T10:29:15.170Z,18.4
2016-11-14T10:29:40.727Z,18.4
2016-11-14T10:30:06.316Z,18.46
2016-11-14T10:30:31.881Z,18.43
2016-11-14T10:30:57.421Z,18.49
2016-11-14T10:31:23.007Z,18.55
2016-11-14T10:31:48.581Z,18.54
2016-11-14T10:32:14.138Z,18.5
2016-11-14T10:32:39.701Z,18.54
2016-11-14T10:33:05.386Z,18.64
2016-11-14T10:33:30.936Z,18.57
2016-11-14T10:33:56.578Z,18.55
2016-11-14T10:34:22.131Z,18.61
2016-11-14T10:34:47.909Z,18.58
2016-11-14T10:35:13.269Z,18.68
2016-11-14T10:35:38.838Z,18.55
2016-11-14T10:36:04.401Z,18.61
2016-11-14T10:36:29.964Z,18.62
2016-11-14T10:36:55.580Z,18.62
2016-11-14T10:37:21.135Z,18.62
2016-11-14T10:37:46.703Z,18.59
2016-11-14T10:38:12.378Z,18.73
2016-11-14T10:38:37.941Z,18.59
2016-11-14T10:39:03.614Z,18.7
2016-11-14T10:39:29.212Z,18.73
2016-11-14T10:39:54.799Z,18.72
2016-11-14T10:40:20.349Z,18.77
2016-11-14T10:40:46.037Z,18.74
2016-11-14T10:41:11.599Z,18.74
2016-11-14T10:41:37.193Z,18.72
2016-11-14T10:42:02.750Z,18.76
2016-11-14T10:42:28.394Z,18.8
2016-11-14T10:42:53.989Z,18.87
2016-11-14T10:43:19.545Z,18.83
2016-11-14T10:43:45.111Z,18.87
2016-11-14T10:44:10.801Z,18.92
2016-11-14T10:44:36.382Z,18.84
2016-11-14T10:45:02.023Z,18.91
2016-11-14T10:45:28.060Z,18.97
2016-11-14T10:45:53.291Z,18.98
2016-11-14T10:46:18.835Z,18.97
2016-11-14T10:46:44.430Z,18.92
2016-11-14T10:47:09.988Z,19.05
2016-11-14T10:47:35.557Z,19.06
2016-11-14T10:48:01.119Z,19.06
2016-11-14T10:48:59.263Z,19.08
2016-11-14T10:49:24.861Z,19.14
2016-11-14T10:49:50.416Z,19.17
2016-11-14T10:50:16.048Z,19.17
2016-11-14T10:50:41.613Z,19.24
2016-11-14T10:51:07.183Z,19.21
2016-11-14T10:51:32.786Z,19.23
2016-11-14T10:51:58.461Z,19.23
2016-11-14T10:52:24.101Z,19.28
2016-11-14T10:52:49.703Z,19.2
2016-11-14T10:53:15.302Z,19.28
2016-11-14T10:53:40.871Z,19.25
2016-11-14T10:54:06.449Z,19.29
2016-11-14T10:54:32.086Z,19.28
2016-11-14T10:54:57.663Z,19.23
2016-11-14T10:55:23.224Z,19.35
2016-11-14T10:55:48.955Z,19.33
2016-11-14T10:56:14.471Z,19.29
2016-11-14T10:56:40.041Z,19.32
2016-11-14T10:57:38.135Z,19.31
2016-11-14T10:58:03.778Z,19.38
2016-11-14T10:58:29.374Z,19.42
2016-11-14T10:58:55.255Z,19.5
2016-11-14T10:59:20.660Z,19.47
2016-11-14T10:59:46.215Z,19.54
2016-11-14T11:00:11.761Z,19.46
2016-11-14T11:00:37.313Z,19.39
2016-11-14T11:01:02.852Z,19.4
2016-11-14T11:01:28.524Z,19.35
2016-11-14T11:01:54.091Z,19.36
2016-11-14T11:02:19.633Z,19.25
2016-11-14T11:02:45.318Z,19.28
2016-11-14T11:03:10.866Z,19.29
2016-11-14T11:03:36.432Z,19.28
2016-11-14T11:04:01.979Z,19.2
2016-11-14T11:04:27.532Z,19.1
2016-11-14T11:04:53.129Z,19.2
2016-11-14T11:05:18.750Z,19.1
2016-11-14T11:05:44.321Z,19.13
2016-11-14T11:06:09.903Z,19.02
2016-11-14T11:06:35.511Z,19.08
2016-11-14T11:07:01.072Z,19.06
2016-11-14T11:07:26.729Z,18.97
2016-11-14T11:07:52.463Z,18.92
2016-11-14T11:08:18.175Z,18.87
2016-11-14T11:08:43.737Z,18.91
2016-11-14T11:09:09.310Z,18.98
2016-11-14T11:09:34.886Z,18.87
2016-11-14T11:10:00.559Z,18.84
2016-11-14T11:10:26.115Z,18.9
2016-11-14T11:11:29.418Z,18.86
2016-11-14T11:11:55.000Z,18.83
2016-11-14T11:12:20.566Z,18.79
2016-11-14T11:12:46.110Z,18.83
2016-11-14T11:13:11.775Z,18.79
2016-11-14T11:13:37.363Z,18.8
2016-11-14T11:14:02.922Z,18.83
2016-11-14T11:14:28.467Z,18.74
2016-11-14T11:14:54.177Z,18.74
2016-11-14T11:15:19.739Z,18.74
2016-11-14T11:15:45.293Z,18.73
2016-11-14T11:16:10.884Z,18.74
2016-11-14T11:16:36.451Z,18.65
2016-11-14T11:17:02.001Z,18.68
2016-11-14T11:17:27.540Z,18.7
2016-11-14T11:17:53.102Z,18.72
2016-11-14T11:18:18.662Z,18.62
2016-11-14T11:18:44.205Z,18.7
2016-11-14T11:19:09.763Z,18.67
2016-11-14T11:19:35.331Z,18.7
2016-11-14T11:20:01.050Z,18.7
2016-11-14T11:20:26.673Z,18.68
2016-11-14T11:20:52.227Z,18.61
2016-11-14T11:21:17.802Z,18.61
2016-11-14T11:21:43.442Z,18.61
2016-11-14T11:22:08.996Z,18.62
2016-11-14T11:22:34.523Z,18.62
2016-11-14T11:23:00.111Z,18.68
2016-11-14T11:23:25.669Z,18.72
2016-11-14T11:23:51.228Z,18.67
2016-11-14T11:24:16.781Z,18.61
2016-11-14T11:24:42.332Z,18.61
2016-11-14T11:25:07.909Z,18.57
2016-11-14T11:26:06.181Z,18.58
2016-11-14T11:26:31.727Z,18.65
2016-11-14T11:26:57.281Z,18.64
2016-11-14T11:27:22.869Z,18.57
2016-11-14T11:27:48.400Z,18.58
2016-11-14T11:28:13.948Z,18.54
2016-11-14T11:28:39.499Z,18.61
2016-11-14T11:29:05.078Z,18.57
2016-11-14T11:29:30.612Z,18.61
2016-11-14T11:29:56.283Z,18.55
2016-11-14T11:30:21.847Z,18.46
2016-11-14T11:30:47.384Z,18.58
2016-11-14T11:31:12.949Z,18.5
2016-11-14T11:31:38.524Z,18.57
2016-11-14T11:32:04.095Z,18.46
2016-11-14T11:32:29.674Z,18.61
2016-11-14T11:32:55.234Z,18.49
2016-11-14T11:33:20.791Z,18.5
2016-11-14T11:33:46.358Z,18.43
2016-11-14T11:34:11.922Z,18.42
2016-11-14T11:34:38.343Z,18.43
2016-11-14T11:35:03.847Z,18.42
2016-11-14T11:35:29.442Z,18.44
2016-11-14T11:35:55.148Z,18.43
2016-11-14T11:36:20.501Z,18.37
2016-11-14T11:36:46.716Z,18.43
2016-11-14T11:37:12.278Z,18.49
2016-11-14T11:37:37.869Z,18.44
2016-11-14T11:38:03.466Z,18.39
2016-11-14T11:38:29.021Z,18.47
2016-11-14T11:38:54.592Z,18.36
2016-11-14T11:39:20.162Z,18.37
2016-11-14T11:39:45.712Z,18.37
2016-11-14T11:40:11.414Z,18.39
2016-11-14T11:40:36.999Z,18.33
2016-11-14T11:41:02.575Z,18.33
2016-11-14T11:41:28.130Z,18.34
2016-11-14T11:41:53.690Z,18.4
2016-11-14T11:42:19.267Z,18.34
2016-11-14T11:42:44.836Z,18.34
2016-11-14T11:43:10.410Z,18.34
2016-11-14T11:43:35.972Z,18.34
2016-11-14T11:44:01.649Z,18.27
2016-11-14T11:44:27.199Z,18.31
2016-11-14T11:44:52.840Z,18.27
2016-11-14T11:45:18.458Z,18.27
2016-11-14T11:45:44.010Z,18.22
2016-11-14T11:46:09.564Z,18.19
2016-11-14T11:46:35.250Z,18.19
2016-11-14T11:47:00.836Z,18.18
2016-11-14T11:47:26.393Z,18.13
2016-11-14T11:47:51.967Z,18.19
2016-11-14T11:48:17.801Z,18.15
2016-11-14T11:48:43.149Z,18.18
2016-11-14T11:49:08.758Z,18.17
2016-11-14T11:49:34.420Z,18.17
2016-11-14T11:50:00.122Z,18.19
2016-11-14T11:50:25.712Z,18.21
2016-11-14T11:50:51.299Z,18.21
2016-11-14T11:51:17.071Z,18.04
2016-11-14T11:51:42.991Z,18.18
2016-11-14T11:52:08.268Z,18.1
2016-11-14T11:52:33.968Z,18.13
2016-11-14T11:52:59.562Z,18.15
2016-11-14T11:53:25.105Z,18.12
2016-11-14T11:53:50.662Z,18.15
2016-11-14T11:54:16.319Z,18.03
2016-11-14T11:54:41.861Z,18.12
2016-11-14T11:55:07.445Z,18.1
2016-11-14T11:55:33.005Z,18.15
2016-11-14T11:55:58.575Z,18.02
2016-11-14T11:56:24.143Z,18.12
2016-11-14T11:56:49.713Z,18.07
2016-11-14T11:57:15.277Z,18.09
2016-11-14T11:57:40.848Z,18.12
2016-11-14T11:58:06.385Z,18.02
2016-11-14T11:58:31.980Z,18.09
2016-11-14T11:58:57.567Z,18
2016-11-14T11:59:23.105Z,18.07
2016-11-14T11:59:48.671Z,18.03
2016-11-14T12:00:14.241Z,18
2016-11-14T12:00:39.810Z,18.07
2016-11-14T12:01:48.453Z,18.07
2016-11-14T12:02:13.711Z,18.07
2016-11-14T12:02:39.287Z,18.02
2016-11-14T12:03:04.979Z,18.03
2016-11-14T12:03:30.521Z,18.03
2016-11-14T12:03:56.071Z,18.06
2016-11-14T12:04:21.615Z,18.07
2016-11-14T12:04:47.174Z,18.02
2016-11-14T12:05:12.723Z,18.18
2016-11-14T12:05:38.271Z,18.06
2016-11-14T12:06:03.909Z,18.03
2016-11-14T12:06:29.475Z,18.03
2016-11-14T12:06:55.057Z,18.02
2016-11-14T12:07:20.837Z,18.09
2016-11-14T12:07:46.212Z,18.07
2016-11-14T12:08:11.757Z,18.02
2016-11-14T12:08:37.282Z,18.03
2016-11-14T12:09:02.871Z,18.09
2016-11-14T12:09:28.435Z,18.06
2016-11-14T12:09:54.013Z,18.09
2016-11-14T12:10:19.566Z,18.1
2016-11-14T12:10:45.127Z,18.07
2016-11-14T12:11:10.682Z,17.99
2016-11-14T12:11:36.348Z,17.99
2016-11-14T12:12:01.891Z,18.04
2016-11-14T12:12:27.450Z,18.07
2016-11-14T12:12:52.994Z,18.07
2016-11-14T12:13:18.547Z,18.02
2016-11-14T12:13:44.112Z,18.02
2016-11-14T12:14:09.663Z,18.03
2016-11-14T12:14:35.232Z,18.02
2016-11-14T12:15:00.954Z,18.07
2016-11-14T12:15:26.399Z,18
2016-11-14T12:15:52.020Z,18
2016-11-14T12:16:17.563Z,18
2016-11-14T12:16:43.129Z,17.95
2016-11-14T12:17:08.690Z,17.94
2016-11-14T12:17:34.255Z,17.95
2016-11-14T12:17:59.819Z,18.02
2016-11-14T12:18:25.381Z,17.95
2016-11-14T12:18:50.951Z,17.99
2016-11-14T12:19:16.528Z,17.94
2016-11-14T12:19:42.110Z,17.91
2016-11-14T12:20:07.745Z,17.99
2016-11-14T12:20:33.321Z,18
2016-11-14T12:20:58.985Z,17.95
2016-11-14T12:21:24.588Z,17.95
2016-11-14T12:21:50.168Z,17.95
2016-11-14T12:22:15.738Z,17.95
2016-11-14T12:22:41.355Z,17.95
2016-11-14T12:23:06.893Z,17.99
2016-11-14T12:23:32.440Z,17.92
2016-11-14T12:23:58.244Z,17.95
2016-11-14T12:24:23.799Z,17.91
2016-11-14T12:24:49.367Z,17.94
2016-11-14T12:25:14.979Z,17.94
2016-11-14T12:25:40.569Z,18
2016-11-14T12:26:06.368Z,17.95
2016-11-14T12:26:31.682Z,17.95
2016-11-14T12:26:57.248Z,17.92
2016-11-14T12:27:22.809Z,17.99
2016-11-14T12:27:48.427Z,17.94
2016-11-14T12:28:14.131Z,17.92
2016-11-14T12:28:39.690Z,17.92
2016-11-14T12:29:05.224Z,17.91
2016-11-14T12:29:30.794Z,17.82
2016-11-14T12:29:56.367Z,17.95
2016-11-14T12:30:21.997Z,17.94
2016-11-14T12:30:47.581Z,17.87
2016-11-14T12:31:13.158Z,17.88
2016-11-14T12:31:38.769Z,17.97
2016-11-14T12:32:04.387Z,17.85
2016-11-14T12:32:29.959Z,17.87
2016-11-14T12:32:55.502Z,17.92
2016-11-14T12:33:21.036Z,18.02
2016-11-14T12:33:46.582Z,17.99
2016-11-14T12:34:12.124Z,17.89
2016-11-14T12:34:37.662Z,17.85
2016-11-14T12:35:03.230Z,17.85
2016-11-14T12:35:28.790Z,17.91
2016-11-14T12:35:54.339Z,17.89
2016-11-14T12:36:42.193Z,17.89
2016-11-14T12:37:07.736Z,17.89
2016-11-14T12:37:33.278Z,17.84
2016-11-14T12:37:58.891Z,17.81
2016-11-14T12:38:24.452Z,17.84
2016-11-14T12:38:50.014Z,17.87
2016-11-14T12:39:15.586Z,17.87
2016-11-14T12:39:41.140Z,17.85
2016-11-14T12:40:06.688Z,17.81
2016-11-14T12:40:32.233Z,17.76
2016-11-14T12:40:57.785Z,17.85
2016-11-14T12:41:23.379Z,17.82
2016-11-14T12:41:48.934Z,17.79
2016-11-14T12:42:14.565Z,17.85
2016-11-14T12:42:40.123Z,17.87
2016-11-14T12:43:05.689Z,17.88
2016-11-14T12:43:31.265Z,17.84
2016-11-14T12:43:56.870Z,17.82
2016-11-14T12:44:22.403Z,17.81
2016-11-14T12:44:48.048Z,17.84
2016-11-14T12:45:13.656Z,17.82
2016-11-14T12:45:39.220Z,17.84
2016-11-14T12:46:04.791Z,17.85
2016-11-14T12:46:30.400Z,17.82
2016-11-14T12:46:55.950Z,17.89
2016-11-14T12:47:21.534Z,17.84
2016-11-14T12:47:47.052Z,17.88
2016-11-14T12:48:12.615Z,17.87
2016-11-14T12:48:38.169Z,17.85
2016-11-14T12:49:03.735Z,17.81
2016-11-14T12:49:29.310Z,17.84
2016-11-14T12:49:54.876Z,17.87
2016-11-14T12:50:20.441Z,17.82
2016-11-14T12:50:46.017Z,17.87
2016-11-14T12:51:11.588Z,17.87
2016-11-14T12:51:37.155Z,17.88
2016-11-14T12:52:02.731Z,17.85
2016-11-14T12:52:28.361Z,17.84
2016-11-14T12:52:53.905Z,17.85
2016-11-14T12:53:19.441Z,17.91
2016-11-14T12:53:45.105Z,17.85
2016-11-14T12:54:10.557Z,17.89
2016-11-14T12:54:36.131Z,17.84
2016-11-14T12:55:01.740Z,17.91
2016-11-14T12:55:27.290Z,17.84
2016-11-14T12:55:52.832Z,17.89
2016-11-14T12:56:18.410Z,17.88
2016-11-14T12:56:43.969Z,17.84
2016-11-14T12:57:09.553Z,17.87
2016-11-14T12:57:35.099Z,17.82
2016-11-14T12:58:00.681Z,17.81
2016-11-14T12:58:26.320Z,17.82
2016-11-14T12:58:51.883Z,17.81
2016-11-14T12:59:17.443Z,17.82
2016-11-14T12:59:43.326Z,17.82
2016-11-14T13:00:08.683Z,17.81
2016-11-14T13:00:34.244Z,17.79
2016-11-14T13:00:59.899Z,17.85
2016-11-14T13:01:25.458Z,17.88
2016-11-14T13:01:51.025Z,17.85
2016-11-14T13:02:16.593Z,17.82
2016-11-14T13:02:42.310Z,17.84
2016-11-14T13:03:07.908Z,17.85
2016-11-14T13:03:33.476Z,17.79
2016-11-14T13:03:59.044Z,17.74
2016-11-14T13:04:24.701Z,17.74
2016-11-14T13:04:50.256Z,17.79
2016-11-14T13:05:15.916Z,17.74
2016-11-14T13:05:41.550Z,17.78
2016-11-14T13:06:07.083Z,17.71
2016-11-14T13:06:32.937Z,17.78
2016-11-14T13:06:58.302Z,17.78
2016-11-14T13:07:23.865Z,17.73
2016-11-14T13:07:49.411Z,17.69
2016-11-14T13:08:15.039Z,17.7
2016-11-14T13:08:40.745Z,17.73
2016-11-14T13:09:06.300Z,17.74
2016-11-14T13:09:31.971Z,17.7
2016-11-14T13:09:57.499Z,17.7
2016-11-14T13:10:23.070Z,17.7
2016-11-14T13:10:48.612Z,17.87
2016-11-14T13:11:14.180Z,17.67
2016-11-14T13:11:39.746Z,17.66
2016-11-14T13:12:05.321Z,17.69
2016-11-14T13:12:30.876Z,17.78
2016-11-14T13:12:56.463Z,17.66
2016-11-14T13:13:22.009Z,17.71
2016-11-14T13:13:47.592Z,17.67
2016-11-14T13:14:13.150Z,17.71
2016-11-14T13:14:38.719Z,17.67
2016-11-14T13:15:04.273Z,17.7
2016-11-14T13:15:29.827Z,17.62
2016-11-14T13:15:55.482Z,17.74
2016-11-14T13:16:21.030Z,17.66
2016-11-14T13:16:46.611Z,17.66
2016-11-14T13:17:12.202Z,17.71
2016-11-14T13:17:37.767Z,17.73
2016-11-14T13:18:03.320Z,17.63
2016-11-14T13:18:28.854Z,17.66
2016-11-14T13:18:54.409Z,17.7
2016-11-14T13:19:19.960Z,17.7
2016-11-14T13:19:45.526Z,17.64
2016-11-14T13:20:11.086Z,17.71
2016-11-14T13:20:36.641Z,17.69
2016-11-14T13:21:02.203Z,17.64
2016-11-14T13:21:27.756Z,17.62
2016-11-14T13:21:53.457Z,17.7
2016-11-14T13:22:18.991Z,17.62
2016-11-14T13:22:44.574Z,17.62
2016-11-14T13:23:10.210Z,17.73
2016-11-14T13:23:35.772Z,17.67
2016-11-14T13:24:01.345Z,17.69
2016-11-14T13:24:26.963Z,17.66
2016-11-14T13:24:52.521Z,17.73
2016-11-14T13:25:18.040Z,17.57
2016-11-14T13:25:43.628Z,17.55
2016-11-14T13:26:09.191Z,17.59
2016-11-14T13:26:34.746Z,17.69
2016-11-14T13:27:00.373Z,17.67
2016-11-14T13:27:25.935Z,17.67
2016-11-14T13:27:52.134Z,17.62
2016-11-14T13:28:17.203Z,17.63
2016-11-14T13:28:42.748Z,17.63
2016-11-14T13:29:08.319Z,17.54
2016-11-14T13:29:33.890Z,17.66
2016-11-14T13:29:59.701Z,17.62
2016-11-14T13:30:25.096Z,17.51
2016-11-14T13:30:50.668Z,17.64
2016-11-14T13:31:16.299Z,17.57
2016-11-14T13:31:41.859Z,17.51
2016-11-14T13:32:07.471Z,17.57
2016-11-14T13:32:33.006Z,17.51
2016-11-14T13:32:58.568Z,17.5
2016-11-14T13:33:24.103Z,17.66
2016-11-14T13:33:49.656Z,17.63
2016-11-14T13:34:15.249Z,17.62
2016-11-14T13:34:40.840Z,17.59
2016-11-14T13:35:06.410Z,17.57
2016-11-14T13:35:31.954Z,17.5
2016-11-14T13:35:57.494Z,17.51
2016-11-14T13:36:23.056Z,17.57
2016-11-14T13:36:48.612Z,17.57
2016-11-14T13:37:14.186Z,17.53
2016-11-14T13:37:39.711Z,17.62
2016-11-14T13:38:05.285Z,17.62
2016-11-14T13:38:30.910Z,17.51
2016-11-14T13:38:56.462Z,17.59
2016-11-14T13:39:22.030Z,17.51
2016-11-14T13:39:47.575Z,17.51
2016-11-14T13:40:13.128Z,17.53
2016-11-14T13:40:38.686Z,17.51
2016-11-14T13:41:04.252Z,17.54
2016-11-14T13:41:29.823Z,17.55
2016-11-14T13:41:55.442Z,17.57
2016-11-14T13:42:20.987Z,17.57
2016-11-14T13:42:46.578Z,17.54
2016-11-14T13:43:12.126Z,17.53
2016-11-14T13:43:37.737Z,17.57
2016-11-14T13:44:03.287Z,17.48
2016-11-14T13:44:28.857Z,17.55
2016-11-14T13:44:54.416Z,17.55
2016-11-14T13:45:20.036Z,17.51
2016-11-14T13:45:45.650Z,17.54
2016-11-14T13:46:11.201Z,17.55
2016-11-14T13:46:36.773Z,17.54
2016-11-14T13:47:02.338Z,17.57
2016-11-14T13:47:27.898Z,17.54
2016-11-14T13:47:53.478Z,17.53
2016-11-14T13:48:19.073Z,17.53
2016-11-14T13:48:44.642Z,17.5
2016-11-14T13:49:10.625Z,17.5
2016-11-14T13:49:35.788Z,17.51
2016-11-14T13:50:01.332Z,17.51
2016-11-14T13:50:27.044Z,17.53
2016-11-14T13:50:52.605Z,17.48
2016-11-14T13:51:18.167Z,17.43
2016-11-14T13:51:43.787Z,17.46
2016-11-14T13:52:09.383Z,17.38
2016-11-14T13:52:34.931Z,17.44
2016-11-14T13:53:00.489Z,17.4
2016-11-14T13:53:26.146Z,17.46
2016-11-14T13:53:51.813Z,17.43
2016-11-14T13:54:17.386Z,17.44
2016-11-14T13:54:42.925Z,17.46
2016-11-14T13:55:08.473Z,17.44
2016-11-14T13:55:34.416Z,17.43
2016-11-14T13:55:59.628Z,17.41
2016-11-14T13:56:25.205Z,17.47
2016-11-14T13:56:50.764Z,17.44
2016-11-14T13:57:16.496Z,17.46
2016-11-14T13:57:41.889Z,17.43
2016-11-14T13:58:07.437Z,17.43
2016-11-14T13:58:32.969Z,17.41
2016-11-14T13:58:58.538Z,17.41
2016-11-14T13:59:24.160Z,17.41
2016-11-14T13:59:49.755Z,17.4
2016-11-14T14:00:15.330Z,17.46
2016-11-14T14:00:40.863Z,17.35
2016-11-14T14:01:06.594Z,17.4
2016-11-14T14:01:32.177Z,17.35
2016-11-14T14:01:57.748Z,17.41
2016-11-14T14:02:23.315Z,17.35
2016-11-14T14:02:48.859Z,17.32
2016-11-14T14:03:14.420Z,17.35
2016-11-14T14:03:39.999Z,17.38
2016-11-14T14:04:05.567Z,17.41
2016-11-14T14:04:31.132Z,17.33
2016-11-14T14:04:56.715Z,17.43
2016-11-14T14:05:22.275Z,17.35
2016-11-14T14:05:47.910Z,17.33
2016-11-14T14:06:13.475Z,17.36
2016-11-14T14:06:39.042Z,17.36
2016-11-14T14:07:04.620Z,17.36
2016-11-14T14:07:30.323Z,17.38
2016-11-14T14:07:55.884Z,17.36
2016-11-14T14:08:21.444Z,17.4
2016-11-14T14:08:47.006Z,17.4
2016-11-14T14:09:12.745Z,17.4
2016-11-14T14:09:38.261Z,17.41
2016-11-14T14:10:03.799Z,17.41
2016-11-14T14:10:29.367Z,17.26
2016-11-14T14:10:54.934Z,17.32
2016-11-14T14:11:20.495Z,17.23
2016-11-14T14:11:46.589Z,17.32
2016-11-14T14:12:11.980Z,17.32
2016-11-14T14:12:37.551Z,17.29
2016-11-14T14:13:03.104Z,17.29
2016-11-14T14:13:28.689Z,17.33
2016-11-14T14:13:54.251Z,17.28
2016-11-14T14:14:19.945Z,17.29
2016-11-14T14:14:45.550Z,17.3
2016-11-14T14:15:11.129Z,17.25
2016-11-14T14:15:36.790Z,17.22
2016-11-14T14:16:02.342Z,17.23
2016-11-14T14:16:27.887Z,17.26
2016-11-14T14:16:53.486Z,17.23
2016-11-14T14:17:19.054Z,17.2
2016-11-14T14:17:44.641Z,17.2
2016-11-14T14:18:10.181Z,17.2
2016-11-14T14:18:35.748Z,17.23
2016-11-14T14:19:01.294Z,17.25
2016-11-14T14:19:26.842Z,17.15
2016-11-14T14:19:52.521Z,17.22
2016-11-14T14:20:18.052Z,17.15
2016-11-14T14:20:43.617Z,17.18
2016-11-14T14:21:09.305Z,17.25
2016-11-14T14:21:35.038Z,17.2
2016-11-14T14:22:00.385Z,17.23
2016-11-14T14:22:25.942Z,17.23
2016-11-14T14:22:51.479Z,17.2
2016-11-14T14:23:17.083Z,17.23
2016-11-14T14:23:42.796Z,17.17
2016-11-14T14:24:08.356Z,17.11
2016-11-14T14:24:33.981Z,17.13
2016-11-14T14:24:59.540Z,17.17
2016-11-14T14:25:25.088Z,17.13
2016-11-14T14:25:50.659Z,17.15
2016-11-14T14:26:16.398Z,17.11
2016-11-14T14:26:41.987Z,17.11
2016-11-14T14:27:07.550Z,17.14
2016-11-14T14:27:33.147Z,17.07
2016-11-14T14:27:58.710Z,17.03
2016-11-14T14:28:24.275Z,17.07
2016-11-14T14:28:49.896Z,17.07
2016-11-14T14:29:15.489Z,17.15
2016-11-14T14:29:41.102Z,17.07
2016-11-14T14:30:06.670Z,17.06
2016-11-14T14:30:32.384Z,17.1
2016-11-14T14:30:57.961Z,17.03
2016-11-14T14:31:23.536Z,17.07
2016-11-14T14:31:49.097Z,17.07
2016-11-14T14:32:14.755Z,17.07
2016-11-14T14:32:40.316Z,17.08
2016-11-14T14:33:05.901Z,17.11
2016-11-14T14:33:31.500Z,17.07
2016-11-14T14:33:57.085Z,17.1
2016-11-14T14:34:22.644Z,17.07
2016-11-14T14:34:48.292Z,17.11
2016-11-14T14:35:13.869Z,17.08
2016-11-14T14:35:39.427Z,17.04
2016-11-14T14:36:05.073Z,17.1
2016-11-14T14:36:30.758Z,17.08
2016-11-14T14:36:56.320Z,17.07
2016-11-14T14:37:22.003Z,17.07
2016-11-14T14:37:47.571Z,17.04
2016-11-14T14:38:13.177Z,16.99
2016-11-14T14:38:38.687Z,17
2016-11-14T14:39:04.552Z,17.06
2016-11-14T14:39:29.915Z,17
2016-11-14T14:39:55.488Z,17.07
2016-11-14T14:40:21.061Z,17
2016-11-14T14:40:46.635Z,17
2016-11-14T14:41:12.162Z,16.98
2016-11-14T14:41:37.738Z,16.96
2016-11-14T14:42:03.289Z,16.98
2016-11-14T14:42:28.877Z,16.99
2016-11-14T14:42:54.497Z,16.96
2016-11-14T14:43:20.077Z,17
2016-11-14T14:43:45.628Z,17.03
2016-11-14T14:44:11.169Z,17.03
2016-11-14T14:44:36.738Z,16.99
2016-11-14T14:45:02.538Z,17.07
2016-11-14T14:45:27.907Z,17
2016-11-14T14:45:53.477Z,17.03
2016-11-14T14:46:19.133Z,16.95
2016-11-14T14:46:44.705Z,16.99
2016-11-14T14:47:10.269Z,16.99
2016-11-14T14:47:35.859Z,16.96
2016-11-14T14:48:01.412Z,16.95
2016-11-14T14:48:26.995Z,17.03
2016-11-14T14:48:52.551Z,16.95
2016-11-14T14:49:18.096Z,16.99
2016-11-14T14:49:43.668Z,16.99
2016-11-14T14:50:09.323Z,16.92
2016-11-14T14:50:34.899Z,16.88
2016-11-14T14:51:00.489Z,16.95
2016-11-14T14:51:26.115Z,16.88
2016-11-14T14:51:51.759Z,16.92
2016-11-14T14:52:17.263Z,16.96
2016-11-14T14:52:42.791Z,16.96
2016-11-14T14:53:08.539Z,16.93
2016-11-14T14:53:34.081Z,16.96
2016-11-14T14:53:59.637Z,16.93
2016-11-14T14:54:25.282Z,16.93
2016-11-14T14:54:50.868Z,16.95
2016-11-14T14:55:16.480Z,16.96
2016-11-14T14:55:42.088Z,16.95
2016-11-14T14:56:07.671Z,16.93
2016-11-14T14:56:33.263Z,16.93
2016-11-14T14:56:58.898Z,16.95
2016-11-14T14:57:24.453Z,16.92
2016-11-14T14:57:50.015Z,16.88
2016-11-14T14:58:15.578Z,16.89
2016-11-14T14:59:03.460Z,16.9
2016-11-14T14:59:29.124Z,16.96
2016-11-14T14:59:54.736Z,16.93
2016-11-14T15:00:20.300Z,16.93
2016-11-14T15:00:45.874Z,16.93
2016-11-14T15:01:11.543Z,16.9
2016-11-14T15:01:37.082Z,16.89
2016-11-14T15:02:02.654Z,16.89
2016-11-14T15:02:28.325Z,16.88
2016-11-14T15:02:53.909Z,16.92
2016-11-14T15:03:19.471Z,16.83
2016-11-14T15:03:45.085Z,16.88
2016-11-14T15:04:10.711Z,16.88
2016-11-14T15:04:36.270Z,16.9
2016-11-14T15:05:01.954Z,16.9
2016-11-14T15:05:27.525Z,16.88
2016-11-14T15:05:53.081Z,16.86
2016-11-14T15:06:18.642Z,16.9
2016-11-14T15:06:44.357Z,16.86
2016-11-14T15:07:09.919Z,16.78
2016-11-14T15:07:35.476Z,16.8
2016-11-14T15:08:01.055Z,16.75
2016-11-14T15:08:26.687Z,16.8
2016-11-14T15:08:52.309Z,16.89
2016-11-14T15:09:17.860Z,16.78
2016-11-14T15:09:43.534Z,16.83
2016-11-14T15:10:09.095Z,16.75
2016-11-14T15:10:34.662Z,16.86
2016-11-14T15:11:00.315Z,16.85
2016-11-14T15:11:25.887Z,16.81
2016-11-14T15:11:51.436Z,16.74
2016-11-14T15:12:17.068Z,16.8
2016-11-14T15:12:42.903Z,16.8
2016-11-14T15:13:08.545Z,16.86
2016-11-14T15:13:34.127Z,16.8
2016-11-14T15:13:59.683Z,16.78
2016-11-14T15:14:25.249Z,16.75
2016-11-14T15:14:50.921Z,16.85
2016-11-14T15:15:16.454Z,16.75
2016-11-14T15:15:42.025Z,16.77
2016-11-14T15:16:07.596Z,16.77
2016-11-14T15:16:33.124Z,16.8
2016-11-14T15:16:58.772Z,16.81
2016-11-14T15:17:24.326Z,16.8
2016-11-14T15:17:49.919Z,16.75
2016-11-14T15:18:15.601Z,16.75
2016-11-14T15:18:41.153Z,16.75
2016-11-14T15:19:06.727Z,16.74
2016-11-14T15:19:32.465Z,16.73
2016-11-14T15:19:58.029Z,16.77
2016-11-14T15:20:23.593Z,16.73
2016-11-14T15:20:49.145Z,16.71
2016-11-14T15:21:14.830Z,16.73
2016-11-14T15:21:40.414Z,16.71
2016-11-14T15:22:05.989Z,16.77
2016-11-14T15:22:31.569Z,16.73
2016-11-14T15:22:57.171Z,16.65
2016-11-14T15:23:22.697Z,16.68
2016-11-14T15:23:48.246Z,16.73
2016-11-14T15:24:13.795Z,16.68
2016-11-14T15:24:39.358Z,16.7
2016-11-14T15:25:05.027Z,16.7
2016-11-14T15:25:30.633Z,16.71
2016-11-14T15:25:56.211Z,16.71
2016-11-14T15:26:21.747Z,16.73
2016-11-14T15:26:47.342Z,16.74
2016-11-14T15:27:12.879Z,16.73
2016-11-14T15:27:38.561Z,16.7
2016-11-14T15:28:04.110Z,16.71
2016-11-14T15:28:29.670Z,16.73
2016-11-14T15:28:55.233Z,16.7
2016-11-14T15:29:20.800Z,16.71
2016-11-14T15:29:46.368Z,16.74
2016-11-14T15:30:11.974Z,16.67
2016-11-14T15:30:37.470Z,16.7
2016-11-14T15:31:03.090Z,16.7